Time;durP1;ratioP1;P1;durP2;ratioP2;P2;SDS_P1;SDS_P2;PMS_P1;PMS_P2;Temp;Humidity;BMP_temperature;BMP_pressure;BME280_temperature;BME280_humidity;BME280_pressure;Samples;Min_cycle;Max_cycle;Signal;HPM_P1;HPM_P2
2022/08/22 00:03:59;;;;;;;8.83;4.40;;;18.90;73.50;;;;;;21177386;28;20235;-65
2022/08/22 00:14:21;;;;;;;6.77;4.50;;;18.90;74.50;;;;;;21177202;28;20663;-64
2022/08/22 00:24:40;;;;;;;4.83;4.07;;;18.80;75.20;;;;;;21109108;28;20620;-64
2022/08/22 00:34:51;;;;;;;7.30;4.37;;;18.70;75.60;;;;;;21089160;28;20238;-65
2022/08/22 00:45:37;;;;;;;5.23;4.20;;;18.70;76.20;;;;;;21090408;28;20633;-66
2022/08/22 00:56:11;;;;;;;6.83;4.30;;;18.60;76.50;;;;;;21088691;28;20257;-65
2022/08/22 01:06:39;;;;;;;6.47;4.50;;;18.50;76.90;;;;;;21088333;28;20212;-65
2022/08/22 01:16:54;;;;;;;5.33;4.20;;;18.40;77.20;;;;;;21087637;28;20260;-65
2022/08/22 01:27:31;;;;;;;7.07;4.70;;;18.40;77.90;;;;;;21086456;28;20291;-64
2022/08/22 01:37:46;;;;;;;7.10;4.00;;;18.40;78.00;;;;;;21073026;28;20226;-64
2022/08/22 01:48:15;;;;;;;6.23;4.17;;;18.30;78.40;;;;;;21084818;28;20204;-64
2022/08/22 01:58:22;;;;;;;6.20;4.53;;;18.20;78.60;;;;;;21040556;28;20271;-64
2022/08/22 02:09:00;;;;;;;8.37;4.37;;;18.20;78.80;;;;;;21082435;28;20206;-65
2022/08/22 02:19:14;;;;;;;6.63;4.70;;;18.10;79.30;;;;;;21081707;28;20725;-65
2022/08/22 02:29:30;;;;;;;10.37;4.40;;;18.00;79.80;;;;;;21079167;28;20233;-65
2022/08/22 02:40:00;;;;;;;5.67;4.47;;;18.00;80.30;;;;;;21081144;28;20237;-65
2022/08/22 02:50:18;;;;;;;6.10;4.47;;;17.90;80.70;;;;;;21080518;28;20207;-66
2022/08/22 03:00:30;;;;;;;5.40;4.23;;;17.90;81.20;;;;;;21079803;28;20567;-65
2022/08/22 03:10:39;;;;;;;7.83;4.23;;;17.70;81.30;;;;;;21079144;28;20653;-64
2022/08/22 03:20:50;;;;;;;7.03;4.50;;;17.70;82.10;;;;;;21078371;28;20729;-65
2022/08/22 03:31:10;;;;;;;7.30;4.53;;;17.60;82.40;;;;;;21078252;28;20286;-65
2022/08/22 03:41:31;;;;;;;6.87;4.70;;;17.60;82.90;;;;;;21077572;28;20662;-64
2022/08/22 03:51:57;;;;;;;7.83;4.70;;;17.50;83.10;;;;;;21077440;28;20200;-65
2022/08/22 04:02:07;;;;;;;6.07;4.60;;;17.40;83.70;;;;;;21077251;28;20236;-65
2022/08/22 04:12:52;;;;;;;7.53;4.90;;;17.30;84.40;;;;;;21076783;28;20213;-65
2022/08/22 04:23:24;;;;;;;8.23;5.03;;;17.20;84.80;;;;;;21075052;28;20229;-64
2022/08/22 04:33:56;;;;;;;9.23;5.10;;;17.00;85.70;;;;;;21088856;28;20237;-64
2022/08/22 04:44:09;;;;;;;10.80;5.20;;;17.00;86.90;;;;;;21090412;28;20240;-66
2022/08/22 04:54:47;;;;;;;12.13;5.37;;;17.00;87.00;;;;;;21087551;28;20234;-64
2022/08/22 05:04:55;;;;;;;10.47;5.67;;;16.90;87.70;;;;;;21088181;28;20233;-64
2022/08/22 05:15:05;;;;;;;13.13;6.47;;;17.00;88.20;;;;;;21087380;28;20205;-64
2022/08/22 05:25:32;;;;;;;11.00;7.60;;;17.20;88.50;;;;;;21085821;28;20237;-66
2022/08/22 05:35:41;;;;;;;11.13;7.97;;;17.30;88.20;;;;;;21084992;28;20209;-66
2022/08/22 05:45:49;;;;;;;16.37;7.43;;;17.30;87.90;;;;;;21083126;28;20257;-65
2022/08/22 05:56:07;;;;;;;13.73;8.37;;;17.20;88.20;;;;;;21084237;28;20214;-66
2022/08/22 06:06:14;;;;;;;52.47;20.93;;;17.30;88.30;;;;;;21082773;28;20236;-64
2022/08/22 06:16:21;;;;;;;24.80;9.23;;;17.50;88.40;;;;;;21108569;28;20202;-65
2022/08/22 06:26:27;;;;;;;23.10;10.60;;;17.80;88.20;;;;;;21093912;28;20233;-66
2022/08/22 06:36:30;;;;;;;13.13;7.73;;;18.20;87.70;;;;;;21142804;28;20202;-65
2022/08/22 06:46:35;;;;;;;20.60;8.43;;;18.60;87.50;;;;;;21163553;28;20240;-65
2022/08/22 06:56:43;;;;;;;15.60;8.83;;;18.90;87.00;;;;;;21162493;28;20205;-69
2022/08/22 07:06:50;;;;;;;16.30;7.30;;;19.30;86.70;;;;;;21127838;28;20537;-64
2022/08/22 07:17:04;;;;;;;15.60;7.20;;;19.70;86.20;;;;;;21136198;28;20224;-65
2022/08/22 07:27:41;;;;;;;11.53;6.77;;;20.00;85.60;;;;;;21086344;28;20231;-64
2022/08/22 07:37:49;;;;;;;10.60;6.20;;;20.40;85.30;;;;;;21069618;28;20229;-64
2022/08/22 07:48:05;;;;;;;8.40;7.00;;;20.80;85.20;;;;;;21074514;28;20209;-73
2022/08/22 07:58:10;;;;;;;10.40;5.00;;;21.10;84.90;;;;;;21075534;28;20228;-68
2022/08/22 08:08:23;;;;;;;8.30;4.83;;;21.50;84.60;;;;;;21072261;28;20260;-68
2022/08/22 08:18:28;;;;;;;11.97;4.57;;;21.80;83.90;;;;;;21089063;28;20241;-73
2022/08/22 08:28:33;;;;;;;13.97;3.50;;;22.10;82.50;;;;;;21087063;28;20231;-67
2022/08/22 08:38:53;;;;;;;7.83;3.50;;;22.40;80.40;;;;;;21086595;28;20276;-62
2022/08/22 08:49:17;;;;;;;10.30;3.60;;;22.70;77.10;;;;;;21088238;28;20206;-64
2022/08/22 08:59:49;;;;;;;12.70;3.43;;;23.10;74.20;;;;;;21087409;28;20241;-64
2022/08/22 09:10:25;;;;;;;6.83;2.90;;;23.50;71.30;;;;;;21086724;28;20320;-73
2022/08/22 09:20:46;;;;;;;5.57;3.10;;;23.80;68.30;;;;;;21068656;28;20589;-74
2022/08/22 09:31:03;;;;;;;7.07;2.93;;;24.10;66.10;;;;;;21092274;28;22369;-69
2022/08/22 09:41:58;;;;;;;4.90;2.90;;;24.20;64.70;;;;;;21133280;28;20229;-72
2022/08/22 09:52:28;;;;;;;6.23;3.30;;;24.40;63.20;;;;;;21111330;28;20647;-73
2022/08/22 10:02:52;;;;;;;5.03;2.90;;;24.60;61.70;;;;;;21065748;28;20717;-71
2022/08/22 10:12:56;;;;;;;7.73;2.93;;;24.80;60.10;;;;;;21164856;28;20709;-66
2022/08/22 10:23:44;;;;;;;5.30;3.37;;;25.00;59.20;;;;;;21100018;28;20234;-69
2022/08/22 10:33:59;;;;;;;5.97;2.47;;;25.10;57.60;;;;;;21078688;28;20598;-63
2022/08/22 10:44:19;;;;;;;2.73;2.33;;;25.30;56.70;;;;;;21163138;28;20226;-69
2022/08/22 10:54:47;;;;;;;3.97;2.37;;;25.50;54.80;;;;;;21161752;28;20201;-71
2022/08/22 11:05:20;;;;;;;4.63;2.73;;;25.80;53.40;;;;;;21161511;28;20233;-68
2022/08/22 11:15:53;;;;;;;3.77;2.23;;;25.90;52.70;;;;;;21113316;28;20229;-72
2022/08/22 11:26:04;;;;;;;6.57;2.40;;;26.10;51.70;;;;;;21092157;28;20283;-70
2022/08/22 11:36:20;;;;;;;7.15;2.58;;;25.90;51.10;;;;;;21163819;28;20920;-67
2022/08/22 11:46:41;;;;;;;5.57;2.50;;;26.10;49.70;;;;;;21131980;28;20234;-65
2022/08/22 11:56:50;;;;;;;5.40;2.90;;;26.00;50.50;;;;;;21093019;28;20210;-65
2022/08/22 12:07:00;;;;;;;6.17;2.83;;;25.90;50.30;;;;;;21073783;28;20210;-63
2022/08/22 12:17:08;;;;;;;3.87;2.00;;;26.20;49.70;;;;;;21105232;28;20202;-66
2022/08/22 12:27:40;;;;;;;14.47;3.60;;;26.60;48.80;;;;;;21174087;28;20316;-64
2022/08/22 12:37:51;;;;;;;8.20;2.60;;;26.70;48.60;;;;;;21171958;28;20713;-65
2022/08/22 12:47:57;;;;;;;3.37;2.50;;;26.70;48.10;;;;;;21170856;28;20627;-62
2022/08/22 12:58:50;;;;;;;6.30;2.13;;;26.90;46.50;;;;;;21172255;28;20272;-64
2022/08/22 13:08:53;;;;;;;3.40;2.10;;;27.00;46.20;;;;;;21071611;28;21011;-64
2022/08/22 13:19:02;;;;;;;5.53;2.37;;;26.80;45.90;;;;;;21115629;28;20239;-65
2022/08/22 13:29:21;;;;;;;10.37;2.10;;;26.90;45.40;;;;;;21099411;28;20222;-68
2022/08/22 13:39:35;;;;;;;8.30;4.37;;;27.20;45.20;;;;;;21066081;28;20238;-63
2022/08/22 13:49:48;;;;;;;10.50;2.20;;;27.30;44.80;;;;;;21084033;28;20211;-62
2022/08/22 14:00:09;;;;;;;4.33;2.07;;;27.40;44.80;;;;;;21078114;28;20456;-61
2022/08/22 14:10:22;;;;;;;5.83;2.30;;;27.70;43.00;;;;;;21080206;28;20234;-63
2022/08/22 14:20:27;;;;;;;3.13;1.75;;;28.00;43.20;;;;;;21081399;28;20728;-63
2022/08/22 14:30:51;;;;;;;4.18;2.10;;;30.10;41.20;;;;;;21080384;28;20225;-70
2022/08/22 14:41:14;;;;;;;6.85;2.55;;;31.30;39.10;;;;;;21062722;28;20234;-64
2022/08/22 14:51:25;;;;;;;3.70;2.35;;;29.00;40.90;;;;;;21077915;28;20206;-64
2022/08/22 15:01:30;;;;;;;3.07;1.87;;;28.20;41.80;;;;;;21074716;28;20678;-64
2022/08/22 15:11:35;;;;;;;4.13;1.90;;;28.00;41.90;;;;;;21074228;28;20202;-64
2022/08/22 15:21:37;;;;;;;4.53;2.00;;;27.80;42.30;;;;;;21075137;28;20234;-63
2022/08/22 15:31:43;;;;;;;3.67;2.33;;;27.70;41.70;;;;;;21075632;28;20705;-64
2022/08/22 15:41:49;;;;;;;4.57;2.53;;;27.50;41.70;;;;;;21076477;28;20597;-67
2022/08/22 15:52:00;;;;;;;6.07;3.47;;;27.30;43.10;;;;;;21076939;28;20244;-64
2022/08/22 16:02:11;;;;;;;4.90;2.50;;;27.10;44.20;;;;;;21076523;28;20283;-68
2022/08/22 16:12:28;;;;;;;6.30;2.70;;;27.10;44.10;;;;;;21076570;28;20577;-64
2022/08/22 16:22:58;;;;;;;9.87;2.83;;;26.80;44.60;;;;;;21080247;28;20230;-64
2022/08/22 16:33:00;;;;;;;6.20;2.20;;;26.70;46.10;;;;;;21087527;28;20238;-73
2022/08/22 16:43:17;;;;;;;4.00;2.63;;;26.50;45.10;;;;;;21090116;28;20230;-73
2022/08/22 16:53:28;;;;;;;10.10;2.07;;;26.50;45.40;;;;;;21089474;28;20214;-71
2022/08/22 17:04:01;;;;;;;6.47;2.73;;;26.40;45.30;;;;;;21087909;28;20233;-67
2022/08/22 17:14:35;;;;;;;4.47;2.70;;;26.30;45.40;;;;;;21070689;28;20206;-73
2022/08/22 17:24:50;;;;;;;4.93;2.50;;;26.10;45.60;;;;;;21131535;28;20262;-73
2022/08/22 17:35:02;;;;;;;5.57;2.50;;;26.10;45.30;;;;;;21118677;28;20230;-65
2022/08/22 17:45:17;;;;;;;5.03;2.20;;;25.90;45.20;;;;;;21169350;28;20237;-73
2022/08/22 17:55:31;;;;;;;3.73;2.10;;;25.80;45.10;;;;;;21107615;28;20208;-70
2022/08/22 18:05:43;;;;;;;5.23;2.27;;;25.70;45.60;;;;;;21083875;28;20234;-72
2022/08/22 18:15:55;;;;;;;3.90;2.10;;;25.50;46.00;;;;;;21082817;28;20214;-67
2022/08/22 18:26:07;;;;;;;8.10;3.00;;;25.40;46.60;;;;;;21112343;28;20633;-69
2022/08/22 18:36:22;;;;;;;11.03;4.70;;;25.10;47.00;;;;;;21163030;28;20225;-70
2022/08/22 18:46:36;;;;;;;8.43;4.17;;;24.90;47.50;;;;;;21161918;28;20693;-73
2022/08/22 18:56:57;;;;;;;7.73;2.80;;;24.80;48.10;;;;;;21163467;28;20255;-69
2022/08/22 19:07:26;;;;;;;8.53;2.60;;;24.60;48.40;;;;;;21163480;28;20230;-68
2022/08/22 19:17:50;;;;;;;6.50;2.67;;;24.50;48.80;;;;;;21162996;28;20243;-67
2022/08/22 19:28:07;;;;;;;9.80;2.67;;;24.40;49.30;;;;;;21113582;28;20234;-71
2022/08/22 19:38:10;;;;;;;4.83;2.60;;;24.20;49.70;;;;;;21059826;28;20237;-67
2022/08/22 19:48:13;;;;;;;8.97;2.70;;;24.10;50.30;;;;;;21077466;28;20261;-68
2022/08/22 19:58:37;;;;;;;5.10;2.57;;;24.00;50.70;;;;;;21092741;28;20221;-66
2022/08/22 20:09:02;;;;;;;11.40;2.33;;;23.90;51.40;;;;;;21175481;28;20430;-66
2022/08/22 20:19:07;;;;;;;5.33;2.40;;;24.00;51.40;;;;;;21159639;28;20615;-68
2022/08/22 20:29:10;;;;;;;9.97;2.23;;;23.70;51.50;;;;;;21141230;28;20326;-67
2022/08/22 20:39:18;;;;;;;8.47;2.10;;;23.50;51.70;;;;;;21169577;28;20226;-67
2022/08/22 20:49:27;;;;;;;5.97;2.40;;;23.40;51.80;;;;;;21112344;28;20663;-67
2022/08/22 20:59:40;;;;;;;2.73;2.27;;;23.30;52.10;;;;;;21089204;28;20242;-66
2022/08/22 21:20:20;;;;;;;5.17;2.27;;;22.90;53.10;;;;;;21100266;28;20236;-67
2022/08/22 21:30:25;;;;;;;5.50;2.57;;;22.80;53.60;;;;;;21171027;28;20234;-69
2022/08/22 21:40:35;;;;;;;8.77;2.57;;;22.70;53.90;;;;;;21170781;28;20294;-68
2022/08/22 21:50:39;;;;;;;7.63;2.67;;;22.50;54.20;;;;;;21169627;28;20765;-66
2022/08/22 22:00:44;;;;;;;6.77;2.53;;;22.40;54.70;;;;;;21168570;28;20279;-69
2022/08/22 22:10:53;;;;;;;8.93;2.70;;;22.30;54.80;;;;;;21168381;28;20684;-68
2022/08/22 22:20:56;;;;;;;7.60;2.60;;;22.20;55.00;;;;;;21145873;28;20233;-67
2022/08/22 22:30:58;;;;;;;5.43;2.73;;;22.10;55.50;;;;;;21082021;28;20238;-70
2022/08/22 22:40:59;;;;;;;7.93;2.60;;;22.00;56.00;;;;;;21081407;28;20234;-70
2022/08/22 22:51:09;;;;;;;9.50;2.90;;;21.90;56.50;;;;;;21080676;28;20236;-67
2022/08/22 23:01:15;;;;;;;5.20;3.43;;;21.70;57.10;;;;;;21080069;28;20732;-66
2022/08/22 23:11:21;;;;;;;10.57;3.03;;;21.50;57.70;;;;;;21079848;28;20202;-66
2022/08/22 23:21:27;;;;;;;7.13;3.80;;;21.30;58.40;;;;;;21078656;28;20234;-66
2022/08/22 23:31:42;;;;;;;8.70;3.17;;;21.10;59.20;;;;;;21078235;28;20283;-68
2022/08/22 23:41:45;;;;;;;4.87;3.00;;;20.90;60.20;;;;;;21078290;28;20701;-70
2022/08/22 23:51:48;;;;;;;4.83;2.60;;;20.80;60.90;;;;;;21077724;28;20209;-70
